Ludlow, Illinois
Current Conditions -  °F | °C
As of 9:30 PM on Saturday 22 Nov 2014 (Local Time) from KTIP Reporting Station
Broken Clouds Broken Clouds  
Wind Chill: 51°   Ceiling: 8000
Heat Index: 51°   Visibility: 10mi
Dew Point: 47°   Wind: 13mph
Humidity: 86%   Direction: 190°S
Pressure: 29.93"   Gusts: 20mph
Location:  40.39°N, 88.13°W
Report Text: KTIP 230330Z AUTO 19011G17KT 10SM SCT029 SCT065 BKN080 11/09 A2993 RMK AO2 T01070085
Loading
Personal Weather Stations






























Interactive Weather Map New forecast layout! Learn more

10-Day Weather Forecast

Advertisements
Track Severe Weather on mobile